createdAt,value
2023-08-12T00:05:49.556Z,12.2
2023-08-12T00:12:09.540Z,12.2
2023-08-12T00:18:31.561Z,24
2023-08-12T00:24:51.508Z,24
2023-08-12T00:31:13.584Z,29.3
2023-08-12T00:37:33.528Z,29.3
2023-08-12T00:43:54.548Z,23.1
2023-08-12T00:50:14.555Z,23.1
2023-08-12T00:56:36.565Z,30.5
2023-08-12T01:02:56.594Z,30.5
2023-08-12T01:09:17.581Z,18.6
2023-08-12T01:15:37.578Z,18.6
2023-08-12T01:21:59.578Z,16.9
2023-08-12T01:28:19.536Z,16.9
2023-08-12T01:34:41.604Z,10.9
2023-08-12T01:41:01.513Z,10.9
2023-08-12T01:47:22.577Z,20.2
2023-08-12T01:53:42.533Z,20.2
2023-08-12T02:00:03.594Z,23.9
2023-08-12T02:06:23.533Z,23.9
2023-08-12T02:12:45.582Z,15.2
2023-08-12T02:19:05.518Z,15.2
2023-08-12T02:25:27.579Z,29.3
2023-08-12T02:31:47.579Z,29.3
2023-08-12T02:38:09.543Z,39.8
2023-08-12T02:44:29.555Z,39.8
2023-08-12T02:50:51.570Z,8.4
2023-08-12T02:57:11.697Z,8.4
2023-08-12T03:03:32.658Z,13.1
2023-08-12T03:09:52.575Z,13.1
2023-08-12T03:16:14.576Z,11.3
2023-08-12T03:22:34.516Z,11.3
2023-08-12T03:28:55.597Z,18
2023-08-12T03:35:16.702Z,18
2023-08-12T03:41:36.570Z,21
2023-08-12T03:47:56.585Z,21
2023-08-12T04:10:43.599Z,35.5
2023-08-12T04:17:05.558Z,35.5
2023-08-12T04:23:24.571Z,35.5
2023-08-12T04:29:46.560Z,27.9
2023-08-12T04:36:06.547Z,27.9
2023-08-12T04:42:28.581Z,17.5
2023-08-12T04:48:48.546Z,17.5
2023-08-12T04:55:10.539Z,12.2
2023-08-12T05:01:30.582Z,12.2
2023-08-12T05:07:52.568Z,8.2
2023-08-12T05:14:12.580Z,8.2
2023-08-12T05:20:34.553Z,17.6
2023-08-12T05:26:54.562Z,17.6
2023-08-12T05:33:16.633Z,6.8
2023-08-12T05:39:36.536Z,6.8
2023-08-12T05:45:58.591Z,7.2
2023-08-12T05:52:18.611Z,7.2
2023-08-12T05:58:40.532Z,5.1
2023-08-12T06:04:59.585Z,5.1
2023-08-12T06:11:21.547Z,9.1
2023-08-12T06:17:41.573Z,9.1
2023-08-12T06:24:03.563Z,14.9
2023-08-12T06:30:23.530Z,14.9
2023-08-12T06:36:45.584Z,2.6
2023-08-12T06:43:05.670Z,2.6
2023-08-12T06:49:27.579Z,5.4
2023-08-12T06:55:47.595Z,5.4
2023-08-12T07:02:09.869Z,27.2
2023-08-12T07:08:29.572Z,27.2
2023-08-12T07:14:51.542Z,4
2023-08-12T07:21:10.669Z,4
2023-08-12T07:27:32.572Z,4
2023-08-12T07:33:52.554Z,4
2023-08-12T07:40:14.614Z,4.4
2023-08-12T07:46:34.560Z,4.4
2023-08-12T07:52:56.617Z,1
2023-08-12T07:59:16.573Z,1
2023-08-12T08:05:38.625Z,2.7
2023-08-12T08:11:58.613Z,2.7
2023-08-12T08:18:20.576Z,0.5
2023-08-12T08:24:40.561Z,0.5
2023-08-12T08:31:02.650Z,11.2
2023-08-12T08:37:22.565Z,11.2
2023-08-12T08:43:44.558Z,1.4
2023-08-12T08:50:04.526Z,1.4
2023-08-12T08:56:27.045Z,4.8
2023-08-12T09:02:46.617Z,4.8
2023-08-12T09:09:08.535Z,1.3
2023-08-12T09:15:28.607Z,1.3
2023-08-12T09:21:50.533Z,1.1
2023-08-12T09:45:48.081Z,3.8
2023-08-12T09:52:07.575Z,3.8
2023-08-12T09:58:29.562Z,3.8
2023-08-12T10:04:49.569Z,3.8
2023-08-12T10:11:13.537Z,0.9
2023-08-12T10:17:43.031Z,0.9
2023-08-12T10:23:53.561Z,6.8
2023-08-12T10:30:13.558Z,6.8
2023-08-12T10:36:37.355Z,1.6
2023-08-12T10:42:55.564Z,1.6
2023-08-12T10:49:16.597Z,1.5
2023-08-12T10:55:36.542Z,1.5
2023-08-12T11:01:58.935Z,0.9
2023-08-12T11:08:18.989Z,0.9
2023-08-12T11:14:40.716Z,4.6
2023-08-12T11:21:00.632Z,4.6
2023-08-12T11:27:22.567Z,0.3
2023-08-12T11:33:42.567Z,0.3
2023-08-12T11:40:04.663Z,0.2
2023-08-12T11:46:24.648Z,0.2
2023-08-12T11:52:46.595Z,1.6
2023-08-12T11:59:06.653Z,1.6
2023-08-12T12:05:28.605Z,0.7
2023-08-12T12:11:48.706Z,0.7
2023-08-12T12:18:10.621Z,19.8
2023-08-12T12:24:30.680Z,19.8
2023-08-12T12:30:52.625Z,1.4
2023-08-12T12:37:12.676Z,1.4
2023-08-12T12:43:34.636Z,0.7
2023-08-12T12:49:54.564Z,0.7
2023-08-12T12:56:16.754Z,0.2
2023-08-12T13:02:36.654Z,0.2
2023-08-12T13:08:58.632Z,0.7
2023-08-12T13:15:18.629Z,0.7
2023-08-12T13:21:40.585Z,1.7
2023-08-12T13:28:00.663Z,1.7
2023-08-12T13:34:22.605Z,0.6
2023-08-12T13:40:42.613Z,0.6
2023-08-12T13:47:04.593Z,0.2
2023-08-12T13:53:24.594Z,0.2
2023-08-12T13:59:46.577Z,1.1
2023-08-12T14:06:06.804Z,1.1
2023-08-12T14:12:28.626Z,0.9
2023-08-12T14:18:48.807Z,0.9
2023-08-12T14:25:10.599Z,0.1
2023-08-12T14:31:30.706Z,0.1
2023-08-12T14:37:52.665Z,0.1
2023-08-12T15:00:38.006Z,1
2023-08-12T15:06:57.557Z,1
2023-08-12T15:13:19.662Z,1
2023-08-12T15:19:39.602Z,1
2023-08-12T15:26:01.663Z,0.6
2023-08-12T15:32:21.590Z,0.6
2023-08-12T15:38:43.666Z,1.9
2023-08-12T15:45:03.617Z,1.9
2023-08-12T15:51:25.533Z,0.3
2023-08-12T15:57:45.625Z,0.3
2023-08-12T16:04:07.613Z,0.2
2023-08-12T16:10:27.518Z,0.2
2023-08-12T16:16:48.725Z,0.7
2023-08-12T16:23:08.598Z,0.7
2023-08-12T16:29:30.532Z,2
2023-08-12T16:35:50.733Z,2
2023-08-12T16:42:12.646Z,11.9
2023-08-12T16:48:32.529Z,11.9
2023-08-12T16:54:54.627Z,4.6
2023-08-12T17:01:14.533Z,4.6
2023-08-12T17:07:36.557Z,0.6
2023-08-12T17:13:56.706Z,0.6
2023-08-12T17:20:18.717Z,0.5
2023-08-12T17:26:38.638Z,0.5
2023-08-12T17:33:00.675Z,1.4
2023-08-12T17:39:20.540Z,1.4
2023-08-12T17:45:42.557Z,0.9
2023-08-12T17:52:02.622Z,0.9
2023-08-12T17:58:24.590Z,0.7
2023-08-12T18:04:44.612Z,0.7
2023-08-12T18:11:06.584Z,0.4
2023-08-12T18:17:26.607Z,0.4
2023-08-12T18:23:48.544Z,0.6
2023-08-12T18:30:08.593Z,0.6
2023-08-12T18:36:30.538Z,4
2023-08-12T18:42:50.538Z,4
2023-08-12T18:49:12.606Z,2
2023-08-12T18:55:32.589Z,2
2023-08-12T19:01:55.088Z,3.6
2023-08-12T19:08:16.570Z,3.6
2023-08-12T19:14:36.585Z,0.4
2023-08-12T19:20:56.600Z,0.4
2023-08-12T19:27:18.848Z,0.1
2023-08-12T19:33:38.577Z,0.1
2023-08-12T19:40:00.540Z,4
2023-08-12T19:46:20.648Z,4
2023-08-12T19:52:42.530Z,0.9
2023-08-12T19:59:02.526Z,0.9
2023-08-12T20:05:24.768Z,3.1
2023-08-12T20:22:07.188Z,1.5
2023-08-12T20:28:29.030Z,6.5
2023-08-12T20:34:48.530Z,6.5
2023-08-12T20:41:10.684Z,6.5
2023-08-12T20:47:30.516Z,6.5
2023-08-12T20:53:51.546Z,0.7
2023-08-12T21:00:11.563Z,0.7
2023-08-12T21:06:33.534Z,1.4
2023-08-12T21:12:53.576Z,1.4
2023-08-12T21:19:15.560Z,1.1
2023-08-12T21:25:35.527Z,1.1
2023-08-12T21:31:57.552Z,1.4
2023-08-12T21:38:16.551Z,1.4
2023-08-12T21:44:37.571Z,1.9
2023-08-12T21:50:57.546Z,1.9
2023-08-12T21:57:19.525Z,2.1
2023-08-12T22:22:49.541Z,7.1
2023-08-12T22:29:08.556Z,7.1
2023-08-12T22:35:30.547Z,7.1
2023-08-12T22:41:50.609Z,7.1
2023-08-12T22:48:12.531Z,1.4
2023-08-12T22:54:32.588Z,1.4
2023-08-12T23:00:54.602Z,2.2
2023-08-12T23:07:14.625Z,2.2
2023-08-12T23:13:36.556Z,3.3
2023-08-12T23:19:56.575Z,3.3
2023-08-12T23:26:18.509Z,1.4
2023-08-12T23:32:37.609Z,1.4
2023-08-12T23:38:59.551Z,1
2023-08-12T23:45:18.581Z,1
2023-08-12T23:51:40.559Z,33.2
2023-08-12T23:58:00.620Z,33.2
